Saturday, August 18, 2018, 1:54 PM EDT
Back to Local

KOXB, Ocean City Municipal Airport

Location: Berlin, MD, United States Lat: 38.317
Local Time: 1:54 PM EDT (17:54 GMT) Lon: -75.117
Time Zone: US/Eastern Elev: 13 ft

Show me the last for .
Show Coded

Time T Td Feel RH Dir Speed Gust Alt SLP Vis Weather Sky Remarks
2018-08-18 12:53 85 75 93 72 290° 8 - 29.88 29.88 10 SCT025 1-hr Precip Total: Trace
2018-08-18 11:53 83 75 91 77 240° 9 - 29.90 29.90 10 FEW020 None
2018-08-18 10:53 83 75 91 77 260° 10 - 29.91 29.91 10 FEW017 None
2018-08-18 10:31 83 75 91 77 280° 12 - 29.91 - 10 SCT021 None
2018-08-18 10:10 83 75 91 77 260° 9 - 29.92 - 10 BKN021 None
2018-08-18 09:53 83 75 91 77 290° 8 - 29.92 29.91 10 FEW019 None
2018-08-18 08:53 83 75 91 77 250° 13 18 29.92 29.92 10 CLR None
2018-08-18 07:53 81 75 88 82 240° 13 - 29.92 29.92 10 CLR 6-hr Min Temp (8am): 79.0°F
6-hr Max Temp (8am): 82.0°F
2018-08-18 06:53 79 76 86 90 230° 7 - 29.93 29.92 10 CLR None
2018-08-18 05:53 80 75 86 84 230° 8 - 29.93 29.93 10 CLR None
2018-08-18 04:53 80 76 87 87 240° 8 - 29.93 29.93 10 CLR None
2018-08-18 03:53 80 76 87 87 240° 8 - 29.94 29.94 10 CLR None
2018-08-18 02:53 81 76 88 84 240° 10 - 29.95 29.95 10 CLR None
2018-08-18 01:53 82 77 91 84 230° 9 - 29.97 29.97 10 CLR 6-hr Min Temp (2am): 81.0°F
6-hr Max Temp (2am): 82.9°F
2018-08-18 00:53 82 77 91 84 230° 10 - 29.98 29.98 10 CLR 24-hr Min Temp (1am): 69.1°F
24-hr Max Temp (1am): 84.9°F
2018-08-17 23:53 81 78 90 91 220° 6 - 29.97 29.97 10 CLR None
2018-08-17 22:53 81 78 90 91 220° 10 - 29.98 29.98 10 CLR None
2018-08-17 21:53 81 78 90 91 210° 9 - 29.99 29.99 10 CLR None
2018-08-17 20:53 82 78 92 87 210° 9 - 30.00 30.00 10 CLR None
2018-08-17 19:53 83 76 91 79 220° 13 - 29.99 29.99 10 CLR 6-hr Min Temp (8pm): 82.0°F
6-hr Max Temp (8pm): 84.0°F
2018-08-17 18:53 83 75 91 77 220° 10 - 30.00 30.00 10 CLR None
2018-08-17 17:53 83 77 92 82 200° 9 - 30.01 30.01 10 CLR None
2018-08-17 16:53 84 77 94 79 200° 10 18 30.02 30.02 10 CLR None
2018-08-17 15:53 84 78 95 82 210° 8 - 30.03 30.03 10 CLR None
2018-08-17 14:53 84 78 95 82 200° 9 - 30.05 30.05 10 CLR None

Support USWX by starting your Amazon purchase here.